Terminal Aerodrome Forecast
Issued by NWS

Home | Current Version | Previous Version | Graphics & Text | Print | Product List | Glossary On
Versions: 1 2 3 4 5 6 7 8 9 10 11 12 13 14 15 16 17
000
FTUS43 KGRB 172300
TAFATW
TAF
KATW 172326Z 1800/1824 27014G23KT P6SM -SN SCT025 BKN050
      TEMPO 1800/1804 4SM -SHSN BKN025
     FM182100 25013G20KT P6SM SCT025 SCT040=

USA.gov is the U.S. government's official web portal to all federal, state and local government web resources and services.